KPBF

Pine Bluff Regional Grider Field Airport

Pine Bluff, Arkansas, USA
KPBF 181831Z 1819/1918 11010KT 3SM BR SCT003 OVC009 TEMPO 1819/1821 2SM BR BKN003 FM182100 14010KT 5SM BR OVC009 WS020/18030KT FM190300 15012KT 4SM -RA BR VCTS BKN004 OVC008CB WS020/20045KT FM190900 21012G20KT 4SM -RA BR BKN007 OVC012 WS020/21045KT FM191500 28016G23KT P6SM OVC015
Issued Valid From Valid To
Jan-18 @ 18:31 UTC
(2 hours ago)
Jan-18 @ 19:00 UTC
(an hour ago)
Jan-19 @ 18:00 UTC
(in 22 hours)
Jan-18 @ 19:00 to Jan-18 @ 21:00
KPBF 181831Z 1819/1918 11010KT 3SM BR SCT003 OVC009
Wind Visibility Clouds Conditions
110° at 10 knots 3 miles
  • Scattered at 300' AGL
  • Overcast at 900' AGL
  • Mist
Temporary Jan-18 @ 19:00 to Jan-18 @ 21:00
TEMPO 1819/1821 2SM BR BKN003
Visibility Clouds Conditions
2 miles
  • Broken at 300' AGL
  • Mist
From Jan-18 @ 21:00 to Jan-19 @ 03:00
FM182100 14010KT 5SM BR OVC009 WS020/18030KT
Wind Visibility Clouds Conditions
140° at 10 knots
 Wind shear 2,000' AGL from 180° at 30 knots
5 miles
  • Overcast at 900' AGL
  • Mist
From Jan-19 @ 03:00 to Jan-19 @ 09:00
FM190300 15012KT 4SM -RA BR VCTS BKN004 OVC008CB WS020/20045KT
Wind Visibility Clouds Conditions
150° at 12 knots
 Wind shear 2,000' AGL from 200° at 45 knots
4 miles
  • Broken at 400' AGL
  • Overcast at 800' AGL
  • Light Rain
  • Mist
  • Area Thunderstorm
From Jan-19 @ 09:00 to Jan-19 @ 15:00
FM190900 21012G20KT 4SM -RA BR BKN007 OVC012 WS020/21045KT
Wind Visibility Clouds Conditions
210° at 12 knots
 Gusting to 20 knots
 Wind shear 2,000' AGL from 210° at 45 knots
4 miles
  • Broken at 700' AGL
  • Overcast at 1,200' AGL
  • Light Rain
  • Mist
From Jan-19 @ 15:00 to Jan-19 @ 18:00
FM191500 28016G23KT P6SM OVC015
Wind Visibility Clouds
280° at 16 knots
 Gusting to 23 knots
Greater than 6 miles
  • Overcast at 1,500' AGL
KPBF 181831Z 1819/1918 11010KT 3SM BR SCT003 OVC009 TEMPO 1819/1821 2SM BR BKN003 FM182100 14010KT 5SM BR OVC009 WS020/18030KT FM190300 15012KT 4SM -RA BR VCTS BKN004 OVC008CB WS020/20045KT FM190900 21012G20KT 4SM -RA BR BKN007 OVC012 WS020/21045KT FM191500 28016G23KT P6SM OVC015
Issued Jan-18 @ 18:31 UTC
(2 hours ago)
Valid From Jan-18 @ 19:00 UTC
(an hour ago)
Valid To Jan-19 @ 18:00 UTC
(in 22 hours)
Jan-18 @ 19:00 - Jan-18 @ 21:00
Wind Visibility
110° at 10 knots 3 miles
Clouds
  • Scattered at 300' AGL
  • Overcast at 900' AGL
Conditions
  • Mist
Temporary Jan-18 @ 19:00 - Jan-18 @ 21:00
Clouds
  • Broken at 300' AGL
Conditions
  • Mist
From Jan-18 @ 21:00 - Jan-19 @ 03:00
Wind Visibility
140° at 10 knots 5 miles
Clouds
  • Overcast at 900' AGL
Conditions
  • Mist
From Jan-19 @ 03:00 - Jan-19 @ 09:00
Wind Visibility
150° at 12 knots 4 miles
Clouds
  • Broken at 400' AGL
  • Overcast at 800' AGL
Conditions
  • Light Rain
  • Mist
  • Area Thunderstorm
From Jan-19 @ 09:00 - Jan-19 @ 15:00
Wind Visibility
210° at 12 knots
 Gusting to 20 knots
4 miles
Clouds
  • Broken at 700' AGL
  • Overcast at 1,200' AGL
Conditions
  • Light Rain
  • Mist
From Jan-19 @ 15:00 - Jan-19 @ 18:00
Wind Visibility
280° at 16 knots
 Gusting to 23 knots
Greater than 6 miles
Clouds
  • Overcast at 1,500' AGL